sensor_id;sensor_type;location;lat;lon;timestamp;P1;durP1;ratioP1;P2;durP2;ratioP2
1759;SDS011;877;46.266;20.062;2022-08-30T00:01:24;9.90;;;6.00;;
1759;SDS011;877;46.266;20.062;2022-08-30T00:03:51;7.77;;;5.73;;
1759;SDS011;877;46.266;20.062;2022-08-30T00:06:19;8.13;;;5.93;;
1759;SDS011;877;46.266;20.062;2022-08-30T00:08:46;8.70;;;5.37;;
1759;SDS011;877;46.266;20.062;2022-08-30T00:11:14;8.60;;;6.30;;
1759;SDS011;877;46.266;20.062;2022-08-30T00:13:41;7.43;;;5.70;;
1759;SDS011;877;46.266;20.062;2022-08-30T00:16:09;7.83;;;6.17;;
1759;SDS011;877;46.266;20.062;2022-08-30T00:18:36;8.37;;;5.63;;
1759;SDS011;877;46.266;20.062;2022-08-30T00:21:04;7.70;;;6.10;;
1759;SDS011;877;46.266;20.062;2022-08-30T00:23:30;10.60;;;6.07;;
1759;SDS011;877;46.266;20.062;2022-08-30T00:25:57;11.00;;;5.97;;
1759;SDS011;877;46.266;20.062;2022-08-30T00:28:23;8.07;;;5.70;;
1759;SDS011;877;46.266;20.062;2022-08-30T00:30:52;10.07;;;5.60;;
1759;SDS011;877;46.266;20.062;2022-08-30T00:33:19;9.77;;;5.83;;
1759;SDS011;877;46.266;20.062;2022-08-30T00:35:46;8.97;;;5.90;;
1759;SDS011;877;46.266;20.062;2022-08-30T00:38:12;6.70;;;5.73;;
1759;SDS011;877;46.266;20.062;2022-08-30T00:40:39;7.50;;;5.53;;
1759;SDS011;877;46.266;20.062;2022-08-30T00:43:09;10.20;;;6.13;;
1759;SDS011;877;46.266;20.062;2022-08-30T00:45:36;9.87;;;6.60;;
1759;SDS011;877;46.266;20.062;2022-08-30T00:48:05;7.20;;;6.00;;
1759;SDS011;877;46.266;20.062;2022-08-30T00:50:37;9.70;;;6.10;;
1759;SDS011;877;46.266;20.062;2022-08-30T00:53:06;6.80;;;5.80;;
1759;SDS011;877;46.266;20.062;2022-08-30T00:55:33;7.70;;;6.07;;
1759;SDS011;877;46.266;20.062;2022-08-30T00:58:01;6.83;;;5.47;;
1759;SDS011;877;46.266;20.062;2022-08-30T01:00:28;8.50;;;6.70;;
1759;SDS011;877;46.266;20.062;2022-08-30T01:02:54;13.20;;;6.67;;
1759;SDS011;877;46.266;20.062;2022-08-30T01:05:21;7.63;;;5.20;;
1759;SDS011;877;46.266;20.062;2022-08-30T01:07:48;7.90;;;5.70;;
1759;SDS011;877;46.266;20.062;2022-08-30T01:10:14;10.33;;;6.70;;
1759;SDS011;877;46.266;20.062;2022-08-30T01:12:42;10.93;;;6.53;;
1759;SDS011;877;46.266;20.062;2022-08-30T01:15:09;9.50;;;6.07;;
1759;SDS011;877;46.266;20.062;2022-08-30T01:17:37;9.10;;;6.00;;
1759;SDS011;877;46.266;20.062;2022-08-30T01:20:09;8.50;;;6.17;;
1759;SDS011;877;46.266;20.062;2022-08-30T01:25:06;8.17;;;5.97;;
1759;SDS011;877;46.266;20.062;2022-08-30T01:27:33;9.07;;;6.27;;
1759;SDS011;877;46.266;20.062;2022-08-30T01:30:01;8.47;;;6.83;;
1759;SDS011;877;46.266;20.062;2022-08-30T01:32:28;8.33;;;6.37;;
1759;SDS011;877;46.266;20.062;2022-08-30T01:34:55;9.93;;;6.57;;
1759;SDS011;877;46.266;20.062;2022-08-30T01:37:23;8.57;;;5.57;;
1759;SDS011;877;46.266;20.062;2022-08-30T01:39:49;10.17;;;6.07;;
1759;SDS011;877;46.266;20.062;2022-08-30T01:42:16;7.70;;;6.07;;
1759;SDS011;877;46.266;20.062;2022-08-30T01:44:45;7.13;;;5.93;;
1759;SDS011;877;46.266;20.062;2022-08-30T01:47:13;8.60;;;6.20;;
1759;SDS011;877;46.266;20.062;2022-08-30T01:49:39;8.70;;;6.23;;
1759;SDS011;877;46.266;20.062;2022-08-30T01:52:06;8.20;;;6.07;;
1759;SDS011;877;46.266;20.062;2022-08-30T01:54:37;8.30;;;6.20;;
1759;SDS011;877;46.266;20.062;2022-08-30T01:57:05;7.90;;;5.93;;
1759;SDS011;877;46.266;20.062;2022-08-30T01:59:32;11.93;;;7.43;;
1759;SDS011;877;46.266;20.062;2022-08-30T02:01:59;10.47;;;6.67;;
1759;SDS011;877;46.266;20.062;2022-08-30T02:04:26;13.63;;;7.37;;
1759;SDS011;877;46.266;20.062;2022-08-30T02:06:53;9.13;;;6.77;;
1759;SDS011;877;46.266;20.062;2022-08-30T02:09:19;11.60;;;8.27;;
1759;SDS011;877;46.266;20.062;2022-08-30T02:11:46;10.10;;;7.20;;
1759;SDS011;877;46.266;20.062;2022-08-30T02:14:12;8.80;;;7.43;;
1759;SDS011;877;46.266;20.062;2022-08-30T02:16:39;14.57;;;7.13;;
1759;SDS011;877;46.266;20.062;2022-08-30T02:19:06;9.20;;;7.17;;
1759;SDS011;877;46.266;20.062;2022-08-30T02:21:33;9.20;;;7.20;;
1759;SDS011;877;46.266;20.062;2022-08-30T02:23:59;9.73;;;7.33;;
1759;SDS011;877;46.266;20.062;2022-08-30T02:26:25;9.67;;;7.53;;
1759;SDS011;877;46.266;20.062;2022-08-30T02:28:52;9.97;;;7.50;;
1759;SDS011;877;46.266;20.062;2022-08-30T02:31:19;9.90;;;8.13;;
1759;SDS011;877;46.266;20.062;2022-08-30T02:33:47;10.20;;;8.03;;
1759;SDS011;877;46.266;20.062;2022-08-30T02:36:14;11.40;;;8.10;;
1759;SDS011;877;46.266;20.062;2022-08-30T02:38:41;9.83;;;7.13;;
1759;SDS011;877;46.266;20.062;2022-08-30T02:41:07;8.33;;;6.70;;
1759;SDS011;877;46.266;20.062;2022-08-30T02:43:34;11.30;;;8.30;;
1759;SDS011;877;46.266;20.062;2022-08-30T02:46:00;9.37;;;7.43;;
1759;SDS011;877;46.266;20.062;2022-08-30T02:48:26;9.80;;;8.07;;
1759;SDS011;877;46.266;20.062;2022-08-30T02:50:52;14.07;;;8.60;;
1759;SDS011;877;46.266;20.062;2022-08-30T02:53:18;10.37;;;7.77;;
1759;SDS011;877;46.266;20.062;2022-08-30T02:55:46;11.30;;;9.53;;
1759;SDS011;877;46.266;20.062;2022-08-30T02:58:12;11.33;;;8.43;;
1759;SDS011;877;46.266;20.062;2022-08-30T03:00:45;9.60;;;7.87;;
1759;SDS011;877;46.266;20.062;2022-08-30T03:03:12;12.40;;;8.57;;
1759;SDS011;877;46.266;20.062;2022-08-30T03:05:38;11.20;;;8.33;;
1759;SDS011;877;46.266;20.062;2022-08-30T03:08:04;15.90;;;8.10;;
1759;SDS011;877;46.266;20.062;2022-08-30T03:13:02;10.90;;;8.50;;
1759;SDS011;877;46.266;20.062;2022-08-30T03:15:32;12.00;;;8.40;;
1759;SDS011;877;46.266;20.062;2022-08-30T03:18:00;10.70;;;8.70;;
1759;SDS011;877;46.266;20.062;2022-08-30T03:20:28;9.50;;;7.93;;
1759;SDS011;877;46.266;20.062;2022-08-30T03:22:54;13.20;;;8.30;;
1759;SDS011;877;46.266;20.062;2022-08-30T03:25:23;8.80;;;6.80;;
1759;SDS011;877;46.266;20.062;2022-08-30T03:27:50;14.27;;;8.10;;
1759;SDS011;877;46.266;20.062;2022-08-30T03:30:23;10.80;;;7.93;;
1759;SDS011;877;46.266;20.062;2022-08-30T03:32:49;12.53;;;7.67;;
1759;SDS011;877;46.266;20.062;2022-08-30T03:35:15;9.80;;;8.00;;
1759;SDS011;877;46.266;20.062;2022-08-30T03:37:43;9.50;;;8.03;;
1759;SDS011;877;46.266;20.062;2022-08-30T03:40:12;8.93;;;7.53;;
1759;SDS011;877;46.266;20.062;2022-08-30T03:42:40;9.77;;;8.60;;
1759;SDS011;877;46.266;20.062;2022-08-30T03:45:08;9.10;;;7.60;;
1759;SDS011;877;46.266;20.062;2022-08-30T03:47:36;13.27;;;8.90;;
1759;SDS011;877;46.266;20.062;2022-08-30T03:50:03;10.37;;;8.23;;
1759;SDS011;877;46.266;20.062;2022-08-30T03:52:31;11.03;;;8.07;;
1759;SDS011;877;46.266;20.062;2022-08-30T03:54:59;9.70;;;7.50;;
1759;SDS011;877;46.266;20.062;2022-08-30T03:57:25;10.93;;;8.00;;
1759;SDS011;877;46.266;20.062;2022-08-30T03:59:51;12.23;;;7.50;;
1759;SDS011;877;46.266;20.062;2022-08-30T04:02:18;13.50;;;9.03;;
1759;SDS011;877;46.266;20.062;2022-08-30T04:04:46;10.67;;;8.70;;
1759;SDS011;877;46.266;20.062;2022-08-30T04:07:14;13.13;;;9.50;;
1759;SDS011;877;46.266;20.062;2022-08-30T04:09:41;12.30;;;8.50;;
1759;SDS011;877;46.266;20.062;2022-08-30T04:12:08;11.07;;;9.63;;
1759;SDS011;877;46.266;20.062;2022-08-30T04:14:34;11.63;;;8.53;;
1759;SDS011;877;46.266;20.062;2022-08-30T04:17:01;13.27;;;9.80;;
1759;SDS011;877;46.266;20.062;2022-08-30T04:19:27;13.67;;;10.17;;
1759;SDS011;877;46.266;20.062;2022-08-30T04:21:53;17.23;;;10.57;;
1759;SDS011;877;46.266;20.062;2022-08-30T04:24:21;12.37;;;10.57;;
1759;SDS011;877;46.266;20.062;2022-08-30T04:26:47;11.97;;;10.67;;
1759;SDS011;877;46.266;20.062;2022-08-30T04:29:13;13.10;;;9.90;;
1759;SDS011;877;46.266;20.062;2022-08-30T04:31:42;11.17;;;9.07;;
1759;SDS011;877;46.266;20.062;2022-08-30T04:34:09;12.40;;;9.80;;
1759;SDS011;877;46.266;20.062;2022-08-30T04:36:35;18.60;;;10.77;;
1759;SDS011;877;46.266;20.062;2022-08-30T04:39:01;13.37;;;10.60;;
1759;SDS011;877;46.266;20.062;2022-08-30T04:41:27;17.90;;;10.80;;
1759;SDS011;877;46.266;20.062;2022-08-30T04:43:54;14.17;;;10.87;;
1759;SDS011;877;46.266;20.062;2022-08-30T04:46:20;13.20;;;10.60;;
1759;SDS011;877;46.266;20.062;2022-08-30T04:48:46;14.20;;;11.07;;
1759;SDS011;877;46.266;20.062;2022-08-30T04:51:14;13.10;;;10.00;;
1759;SDS011;877;46.266;20.062;2022-08-30T04:53:41;15.60;;;10.47;;
1759;SDS011;877;46.266;20.062;2022-08-30T04:56:08;14.00;;;10.70;;
1759;SDS011;877;46.266;20.062;2022-08-30T04:58:36;13.37;;;9.87;;
1759;SDS011;877;46.266;20.062;2022-08-30T05:01:02;13.57;;;10.80;;
1759;SDS011;877;46.266;20.062;2022-08-30T05:03:29;14.77;;;10.60;;
1759;SDS011;877;46.266;20.062;2022-08-30T05:05:55;13.53;;;10.00;;
1759;SDS011;877;46.266;20.062;2022-08-30T05:08:21;15.50;;;12.83;;
1759;SDS011;877;46.266;20.062;2022-08-30T05:10:49;19.20;;;13.07;;
1759;SDS011;877;46.266;20.062;2022-08-30T05:13:16;19.40;;;13.97;;
1759;SDS011;877;46.266;20.062;2022-08-30T05:15:43;17.80;;;13.10;;
1759;SDS011;877;46.266;20.062;2022-08-30T05:18:10;19.07;;;15.00;;
1759;SDS011;877;46.266;20.062;2022-08-30T05:20:37;17.60;;;14.13;;
1759;SDS011;877;46.266;20.062;2022-08-30T05:23:05;17.93;;;14.93;;
1759;SDS011;877;46.266;20.062;2022-08-30T05:25:35;18.40;;;14.40;;
1759;SDS011;877;46.266;20.062;2022-08-30T05:28:07;20.90;;;15.33;;
1759;SDS011;877;46.266;20.062;2022-08-30T05:33:08;22.13;;;15.60;;
1759;SDS011;877;46.266;20.062;2022-08-30T05:35:34;20.43;;;16.20;;
1759;SDS011;877;46.266;20.062;2022-08-30T05:38:08;20.20;;;17.17;;
1759;SDS011;877;46.266;20.062;2022-08-30T05:40:42;19.87;;;15.77;;
1759;SDS011;877;46.266;20.062;2022-08-30T05:43:09;19.37;;;15.47;;
1759;SDS011;877;46.266;20.062;2022-08-30T05:45:35;24.60;;;16.70;;
1759;SDS011;877;46.266;20.062;2022-08-30T05:48:09;21.70;;;17.00;;
1759;SDS011;877;46.266;20.062;2022-08-30T05:50:37;24.40;;;17.07;;
1759;SDS011;877;46.266;20.062;2022-08-30T05:53:05;19.13;;;16.90;;
1759;SDS011;877;46.266;20.062;2022-08-30T05:55:31;21.93;;;17.20;;
1759;SDS011;877;46.266;20.062;2022-08-30T05:57:58;18.33;;;15.97;;
1759;SDS011;877;46.266;20.062;2022-08-30T06:00:28;19.20;;;16.90;;
1759;SDS011;877;46.266;20.062;2022-08-30T06:02:55;19.43;;;16.40;;
1759;SDS011;877;46.266;20.062;2022-08-30T06:05:21;23.17;;;17.30;;
1759;SDS011;877;46.266;20.062;2022-08-30T06:07:47;21.80;;;17.57;;
1759;SDS011;877;46.266;20.062;2022-08-30T06:10:15;23.83;;;16.17;;
1759;SDS011;877;46.266;20.062;2022-08-30T06:12:45;22.40;;;17.53;;
1759;SDS011;877;46.266;20.062;2022-08-30T06:15:11;20.33;;;16.03;;
1759;SDS011;877;46.266;20.062;2022-08-30T06:17:37;21.50;;;17.07;;
1759;SDS011;877;46.266;20.062;2022-08-30T06:20:04;22.27;;;16.77;;
1759;SDS011;877;46.266;20.062;2022-08-30T06:22:38;24.27;;;16.80;;
1759;SDS011;877;46.266;20.062;2022-08-30T06:25:05;23.23;;;17.53;;
1759;SDS011;877;46.266;20.062;2022-08-30T06:27:32;22.00;;;16.47;;
1759;SDS011;877;46.266;20.062;2022-08-30T06:29:58;20.30;;;16.00;;
1759;SDS011;877;46.266;20.062;2022-08-30T06:32:24;20.67;;;15.90;;
1759;SDS011;877;46.266;20.062;2022-08-30T06:34:55;20.43;;;15.83;;
1759;SDS011;877;46.266;20.062;2022-08-30T06:37:28;17.03;;;14.30;;
1759;SDS011;877;46.266;20.062;2022-08-30T06:40:00;19.33;;;16.10;;
1759;SDS011;877;46.266;20.062;2022-08-30T06:42:29;19.27;;;16.57;;
1759;SDS011;877;46.266;20.062;2022-08-30T06:44:58;20.87;;;16.63;;
1759;SDS011;877;46.266;20.062;2022-08-30T06:49:55;18.20;;;15.30;;
1759;SDS011;877;46.266;20.062;2022-08-30T06:52:23;20.90;;;15.40;;
1759;SDS011;877;46.266;20.062;2022-08-30T06:54:56;20.50;;;15.03;;
1759;SDS011;877;46.266;20.062;2022-08-30T06:57:30;21.47;;;16.20;;
1759;SDS011;877;46.266;20.062;2022-08-30T06:59:57;17.27;;;15.13;;
1759;SDS011;877;46.266;20.062;2022-08-30T07:02:24;26.53;;;16.83;;
1759;SDS011;877;46.266;20.062;2022-08-30T07:04:52;18.73;;;15.73;;
1759;SDS011;877;46.266;20.062;2022-08-30T07:07:19;23.83;;;17.57;;
1759;SDS011;877;46.266;20.062;2022-08-30T07:09:45;22.37;;;17.90;;
1759;SDS011;877;46.266;20.062;2022-08-30T07:12:12;20.57;;;17.20;;
1759;SDS011;877;46.266;20.062;2022-08-30T07:14:39;19.53;;;15.43;;
1759;SDS011;877;46.266;20.062;2022-08-30T07:17:07;19.27;;;15.10;;
1759;SDS011;877;46.266;20.062;2022-08-30T07:19:53;15.17;;;12.87;;
1759;SDS011;877;46.266;20.062;2022-08-30T07:24:53;21.23;;;14.80;;
1759;SDS011;877;46.266;20.062;2022-08-30T07:27:27;18.70;;;16.77;;
1759;SDS011;877;46.266;20.062;2022-08-30T07:29:59;19.20;;;16.30;;
1759;SDS011;877;46.266;20.062;2022-08-30T07:32:27;18.93;;;15.00;;
1759;SDS011;877;46.266;20.062;2022-08-30T07:34:55;18.67;;;14.47;;
1759;SDS011;877;46.266;20.062;2022-08-30T07:37:22;15.13;;;13.57;;
1759;SDS011;877;46.266;20.062;2022-08-30T07:39:52;12.63;;;11.17;;
1759;SDS011;877;46.266;20.062;2022-08-30T07:42:29;16.53;;;13.77;;
1759;SDS011;877;46.266;20.062;2022-08-30T07:45:02;26.97;;;17.70;;
1759;SDS011;877;46.266;20.062;2022-08-30T07:47:28;16.53;;;14.47;;
1759;SDS011;877;46.266;20.062;2022-08-30T07:52:25;15.33;;;13.10;;
1759;SDS011;877;46.266;20.062;2022-08-30T07:54:53;23.00;;;17.47;;
1759;SDS011;877;46.266;20.062;2022-08-30T07:57:26;20.47;;;15.57;;
1759;SDS011;877;46.266;20.062;2022-08-30T07:59:56;19.13;;;14.50;;
1759;SDS011;877;46.266;20.062;2022-08-30T08:02:23;20.70;;;17.27;;
1759;SDS011;877;46.266;20.062;2022-08-30T08:04:50;17.80;;;15.90;;
1759;SDS011;877;46.266;20.062;2022-08-30T08:07:17;24.67;;;17.40;;
1759;SDS011;877;46.266;20.062;2022-08-30T08:09:43;19.10;;;17.07;;
1759;SDS011;877;46.266;20.062;2022-08-30T08:12:11;17.33;;;15.10;;
1759;SDS011;877;46.266;20.062;2022-08-30T08:14:38;18.20;;;14.23;;
1759;SDS011;877;46.266;20.062;2022-08-30T08:17:06;15.73;;;13.17;;
1759;SDS011;877;46.266;20.062;2022-08-30T08:19:34;17.67;;;15.23;;
1759;SDS011;877;46.266;20.062;2022-08-30T08:22:03;16.40;;;14.73;;
1759;SDS011;877;46.266;20.062;2022-08-30T08:24:29;15.87;;;14.00;;
1759;SDS011;877;46.266;20.062;2022-08-30T08:27:01;22.60;;;16.03;;
1759;SDS011;877;46.266;20.062;2022-08-30T08:29:28;22.23;;;15.50;;
1759;SDS011;877;46.266;20.062;2022-08-30T08:31:56;17.93;;;16.03;;
1759;SDS011;877;46.266;20.062;2022-08-30T08:34:30;15.47;;;13.03;;
1759;SDS011;877;46.266;20.062;2022-08-30T08:37:04;16.00;;;12.77;;
1759;SDS011;877;46.266;20.062;2022-08-30T08:39:30;20.80;;;15.47;;
1759;SDS011;877;46.266;20.062;2022-08-30T08:42:13;17.07;;;13.83;;
1759;SDS011;877;46.266;20.062;2022-08-30T08:47:49;16.97;;;13.33;;
1759;SDS011;877;46.266;20.062;2022-08-30T08:50:17;15.07;;;12.57;;
1759;SDS011;877;46.266;20.062;2022-08-30T08:52:50;15.50;;;12.80;;
1759;SDS011;877;46.266;20.062;2022-08-30T08:55:41;14.97;;;13.30;;
1759;SDS011;877;46.266;20.062;2022-08-30T08:58:20;12.73;;;11.37;;
1759;SDS011;877;46.266;20.062;2022-08-30T09:00:48;14.07;;;10.63;;
1759;SDS011;877;46.266;20.062;2022-08-30T09:05:52;16.67;;;12.87;;
1759;SDS011;877;46.266;20.062;2022-08-30T09:08:25;11.70;;;10.03;;
1759;SDS011;877;46.266;20.062;2022-08-30T09:10:53;14.23;;;12.73;;
1759;SDS011;877;46.266;20.062;2022-08-30T09:13:22;19.60;;;14.60;;
1759;SDS011;877;46.266;20.062;2022-08-30T09:15:51;15.40;;;10.47;;
1759;SDS011;877;46.266;20.062;2022-08-30T09:18:18;13.83;;;12.33;;
1759;SDS011;877;46.266;20.062;2022-08-30T09:20:46;19.60;;;13.50;;
1759;SDS011;877;46.266;20.062;2022-08-30T09:28:19;17.73;;;13.47;;
1759;SDS011;877;46.266;20.062;2022-08-30T09:31:04;12.73;;;11.43;;
1759;SDS011;877;46.266;20.062;2022-08-30T09:33:32;12.47;;;10.13;;
1759;SDS011;877;46.266;20.062;2022-08-30T09:39:04;13.83;;;11.10;;
1759;SDS011;877;46.266;20.062;2022-08-30T09:41:39;12.90;;;11.37;;
1759;SDS011;877;46.266;20.062;2022-08-30T09:44:08;14.50;;;12.30;;
1759;SDS011;877;46.266;20.062;2022-08-30T09:47:16;12.87;;;10.63;;
1759;SDS011;877;46.266;20.062;2022-08-30T09:49:39;16.10;;;9.63;;
1759;SDS011;877;46.266;20.062;2022-08-30T09:54:46;11.00;;;9.00;;
1759;SDS011;877;46.266;20.062;2022-08-30T09:59:46;11.00;;;8.70;;
1759;SDS011;877;46.266;20.062;2022-08-30T10:10:48;11.17;;;8.73;;
1759;SDS011;877;46.266;20.062;2022-08-30T10:18:50;14.80;;;8.90;;
1759;SDS011;877;46.266;20.062;2022-08-30T10:23:49;9.33;;;7.73;;
1759;SDS011;877;46.266;20.062;2022-08-30T10:29:02;10.03;;;8.90;;
1759;SDS011;877;46.266;20.062;2022-08-30T10:31:42;11.87;;;10.17;;
1759;SDS011;877;46.266;20.062;2022-08-30T10:34:19;10.97;;;8.87;;
1759;SDS011;877;46.266;20.062;2022-08-30T10:39:25;9.60;;;8.60;;
1759;SDS011;877;46.266;20.062;2022-08-30T10:41:54;10.40;;;9.10;;
1759;SDS011;877;46.266;20.062;2022-08-30T10:44:33;12.17;;;9.67;;
1759;SDS011;877;46.266;20.062;2022-08-30T10:49:47;12.60;;;9.20;;
1759;SDS011;877;46.266;20.062;2022-08-30T10:54:58;15.57;;;9.43;;
1759;SDS011;877;46.266;20.062;2022-08-30T10:57:26;11.37;;;8.90;;
1759;SDS011;877;46.266;20.062;2022-08-30T10:59:56;14.93;;;9.80;;
1759;SDS011;877;46.266;20.062;2022-08-30T11:07:29;9.50;;;8.50;;
1759;SDS011;877;46.266;20.062;2022-08-30T11:15:12;13.30;;;10.47;;
1759;SDS011;877;46.266;20.062;2022-08-30T11:20:23;9.80;;;8.73;;
1759;SDS011;877;46.266;20.062;2022-08-30T11:26:20;10.90;;;9.50;;
1759;SDS011;877;46.266;20.062;2022-08-30T11:31:04;7.90;;;7.10;;
1759;SDS011;877;46.266;20.062;2022-08-30T11:33:52;9.63;;;8.00;;
1759;SDS011;877;46.266;20.062;2022-08-30T11:39:02;9.53;;;7.47;;
1759;SDS011;877;46.266;20.062;2022-08-30T11:41:33;11.27;;;8.53;;
1759;SDS011;877;46.266;20.062;2022-08-30T11:44:13;9.93;;;8.30;;
1759;SDS011;877;46.266;20.062;2022-08-30T11:49:53;9.23;;;7.43;;
1759;SDS011;877;46.266;20.062;2022-08-30T11:55:03;8.43;;;6.83;;
1759;SDS011;877;46.266;20.062;2022-08-30T12:08:00;9.60;;;7.53;;
1759;SDS011;877;46.266;20.062;2022-08-30T12:13:02;8.60;;;6.90;;
1759;SDS011;877;46.266;20.062;2022-08-30T12:18:16;11.90;;;6.30;;
1759;SDS011;877;46.266;20.062;2022-08-30T12:20:52;8.50;;;6.53;;
1759;SDS011;877;46.266;20.062;2022-08-30T12:23:37;7.80;;;6.20;;
1759;SDS011;877;46.266;20.062;2022-08-30T12:26:11;7.37;;;5.63;;
1759;SDS011;877;46.266;20.062;2022-08-30T12:28:39;8.20;;;6.30;;
1759;SDS011;877;46.266;20.062;2022-08-30T12:31:14;11.07;;;6.40;;
1759;SDS011;877;46.266;20.062;2022-08-30T12:33:46;7.23;;;5.77;;
1759;SDS011;877;46.266;20.062;2022-08-30T12:36:30;8.90;;;6.80;;
1759;SDS011;877;46.266;20.062;2022-08-30T12:41:52;8.57;;;5.43;;
1759;SDS011;877;46.266;20.062;2022-08-30T12:44:20;5.90;;;5.20;;
1759;SDS011;877;46.266;20.062;2022-08-30T12:46:49;6.30;;;5.60;;
1759;SDS011;877;46.266;20.062;2022-08-30T12:49:19;7.57;;;5.30;;
1759;SDS011;877;46.266;20.062;2022-08-30T12:51:49;7.30;;;6.07;;
1759;SDS011;877;46.266;20.062;2022-08-30T12:56:49;5.47;;;4.93;;
1759;SDS011;877;46.266;20.062;2022-08-30T13:02:15;6.93;;;5.60;;
1759;SDS011;877;46.266;20.062;2022-08-30T13:04:41;5.90;;;4.97;;
1759;SDS011;877;46.266;20.062;2022-08-30T13:07:08;7.80;;;6.00;;
1759;SDS011;877;46.266;20.062;2022-08-30T13:09:38;7.50;;;5.30;;
1759;SDS011;877;46.266;20.062;2022-08-30T13:12:09;8.77;;;5.33;;
1759;SDS011;877;46.266;20.062;2022-08-30T13:14:37;10.47;;;6.10;;
1759;SDS011;877;46.266;20.062;2022-08-30T13:17:06;5.83;;;5.23;;
1759;SDS011;877;46.266;20.062;2022-08-30T13:19:33;8.53;;;5.80;;
1759;SDS011;877;46.266;20.062;2022-08-30T13:22:00;7.97;;;5.50;;
1759;SDS011;877;46.266;20.062;2022-08-30T13:24:26;6.73;;;4.77;;
1759;SDS011;877;46.266;20.062;2022-08-30T13:26:57;5.17;;;4.37;;
1759;SDS011;877;46.266;20.062;2022-08-30T13:29:25;5.63;;;4.83;;
1759;SDS011;877;46.266;20.062;2022-08-30T13:31:52;5.50;;;4.80;;
1759;SDS011;877;46.266;20.062;2022-08-30T13:34:19;6.77;;;5.17;;
1759;SDS011;877;46.266;20.062;2022-08-30T13:36:51;6.80;;;4.90;;
1759;SDS011;877;46.266;20.062;2022-08-30T13:39:18;8.43;;;5.93;;
1759;SDS011;877;46.266;20.062;2022-08-30T13:41:44;7.03;;;5.77;;
1759;SDS011;877;46.266;20.062;2022-08-30T13:44:12;6.97;;;6.27;;
1759;SDS011;877;46.266;20.062;2022-08-30T13:46:39;6.63;;;5.20;;
1759;SDS011;877;46.266;20.062;2022-08-30T13:49:11;7.10;;;5.90;;
1759;SDS011;877;46.266;20.062;2022-08-30T13:51:39;10.57;;;6.20;;
1759;SDS011;877;46.266;20.062;2022-08-30T13:54:05;7.00;;;5.70;;
1759;SDS011;877;46.266;20.062;2022-08-30T13:56:31;7.27;;;6.17;;
1759;SDS011;877;46.266;20.062;2022-08-30T13:58:57;9.13;;;7.13;;
1759;SDS011;877;46.266;20.062;2022-08-30T14:01:25;8.13;;;6.63;;
1759;SDS011;877;46.266;20.062;2022-08-30T14:03:51;7.40;;;6.20;;
1759;SDS011;877;46.266;20.062;2022-08-30T14:06:17;7.93;;;6.40;;
1759;SDS011;877;46.266;20.062;2022-08-30T14:08:44;8.00;;;6.77;;
1759;SDS011;877;46.266;20.062;2022-08-30T14:11:11;9.17;;;7.97;;
1759;SDS011;877;46.266;20.062;2022-08-30T14:13:40;8.67;;;6.87;;
1759;SDS011;877;46.266;20.062;2022-08-30T14:16:10;11.00;;;9.20;;
1759;SDS011;877;46.266;20.062;2022-08-30T14:18:36;8.23;;;7.17;;
1759;SDS011;877;46.266;20.062;2022-08-30T14:21:02;9.00;;;6.50;;
1759;SDS011;877;46.266;20.062;2022-08-30T14:23:28;9.93;;;6.43;;
1759;SDS011;877;46.266;20.062;2022-08-30T14:25:55;7.90;;;6.40;;
1759;SDS011;877;46.266;20.062;2022-08-30T14:28:24;8.87;;;6.43;;
1759;SDS011;877;46.266;20.062;2022-08-30T14:30:53;9.50;;;7.10;;
1759;SDS011;877;46.266;20.062;2022-08-30T14:33:20;10.37;;;6.07;;
1759;SDS011;877;46.266;20.062;2022-08-30T14:35:46;7.83;;;7.03;;
1759;SDS011;877;46.266;20.062;2022-08-30T14:38:12;8.43;;;7.53;;
1759;SDS011;877;46.266;20.062;2022-08-30T14:40:39;8.20;;;7.40;;
1759;SDS011;877;46.266;20.062;2022-08-30T14:43:08;7.80;;;6.93;;
1759;SDS011;877;46.266;20.062;2022-08-30T14:45:36;9.07;;;7.30;;
1759;SDS011;877;46.266;20.062;2022-08-30T14:48:03;9.07;;;6.70;;
1759;SDS011;877;46.266;20.062;2022-08-30T14:50:35;9.40;;;7.63;;
1759;SDS011;877;46.266;20.062;2022-08-30T14:53:03;9.47;;;6.20;;
1759;SDS011;877;46.266;20.062;2022-08-30T14:55:35;10.30;;;6.93;;
1759;SDS011;877;46.266;20.062;2022-08-30T14:58:03;9.23;;;6.27;;
1759;SDS011;877;46.266;20.062;2022-08-30T15:00:31;8.20;;;6.63;;
1759;SDS011;877;46.266;20.062;2022-08-30T15:03:00;11.40;;;6.40;;
1759;SDS011;877;46.266;20.062;2022-08-30T15:05:27;10.97;;;7.63;;
1759;SDS011;877;46.266;20.062;2022-08-30T15:07:55;8.00;;;6.50;;
1759;SDS011;877;46.266;20.062;2022-08-30T15:10:22;9.53;;;7.53;;
1759;SDS011;877;46.266;20.062;2022-08-30T15:12:50;9.07;;;7.10;;
1759;SDS011;877;46.266;20.062;2022-08-30T15:15:18;8.60;;;7.30;;
1759;SDS011;877;46.266;20.062;2022-08-30T15:17:46;8.97;;;7.07;;
1759;SDS011;877;46.266;20.062;2022-08-30T15:22:52;12.17;;;6.73;;
1759;SDS011;877;46.266;20.062;2022-08-30T15:25:19;11.77;;;7.27;;
1759;SDS011;877;46.266;20.062;2022-08-30T15:27:46;7.90;;;7.10;;
1759;SDS011;877;46.266;20.062;2022-08-30T15:30:13;12.13;;;9.30;;
1759;SDS011;877;46.266;20.062;2022-08-30T15:32:40;12.20;;;8.10;;
1759;SDS011;877;46.266;20.062;2022-08-30T15:35:08;9.33;;;7.30;;
1759;SDS011;877;46.266;20.062;2022-08-30T15:37:36;9.80;;;6.87;;
1759;SDS011;877;46.266;20.062;2022-08-30T15:40:04;9.13;;;7.20;;
1759;SDS011;877;46.266;20.062;2022-08-30T15:42:38;7.77;;;6.13;;
1759;SDS011;877;46.266;20.062;2022-08-30T15:45:16;9.60;;;6.90;;
1759;SDS011;877;46.266;20.062;2022-08-30T15:47:43;11.33;;;7.23;;
1759;SDS011;877;46.266;20.062;2022-08-30T15:50:10;8.07;;;7.07;;
1759;SDS011;877;46.266;20.062;2022-08-30T15:52:36;7.43;;;6.63;;
1759;SDS011;877;46.266;20.062;2022-08-30T15:55:08;10.30;;;7.17;;
1759;SDS011;877;46.266;20.062;2022-08-30T15:57:34;8.00;;;6.97;;
1759;SDS011;877;46.266;20.062;2022-08-30T16:00:03;8.60;;;6.90;;
1759;SDS011;877;46.266;20.062;2022-08-30T16:02:31;7.50;;;6.57;;
1759;SDS011;877;46.266;20.062;2022-08-30T16:04:58;7.70;;;6.00;;
1759;SDS011;877;46.266;20.062;2022-08-30T16:07:25;10.10;;;7.33;;
1759;SDS011;877;46.266;20.062;2022-08-30T16:09:52;8.60;;;7.50;;
1759;SDS011;877;46.266;20.062;2022-08-30T16:12:20;9.87;;;7.33;;
1759;SDS011;877;46.266;20.062;2022-08-30T16:14:55;13.10;;;7.50;;
1759;SDS011;877;46.266;20.062;2022-08-30T16:17:26;9.13;;;6.37;;
1759;SDS011;877;46.266;20.062;2022-08-30T16:19:52;10.23;;;6.80;;
1759;SDS011;877;46.266;20.062;2022-08-30T16:22:24;8.43;;;6.93;;
1759;SDS011;877;46.266;20.062;2022-08-30T16:24:50;9.00;;;7.07;;
1759;SDS011;877;46.266;20.062;2022-08-30T16:27:17;8.83;;;6.97;;
1759;SDS011;877;46.266;20.062;2022-08-30T16:29:51;8.00;;;7.10;;
1759;SDS011;877;46.266;20.062;2022-08-30T16:32:17;7.00;;;6.07;;
1759;SDS011;877;46.266;20.062;2022-08-30T16:34:45;7.87;;;7.00;;
1759;SDS011;877;46.266;20.062;2022-08-30T16:37:12;8.90;;;6.30;;
1759;SDS011;877;46.266;20.062;2022-08-30T16:39:38;8.90;;;5.97;;
1759;SDS011;877;46.266;20.062;2022-08-30T16:42:05;7.70;;;6.23;;
1759;SDS011;877;46.266;20.062;2022-08-30T16:44:32;8.03;;;5.97;;
1759;SDS011;877;46.266;20.062;2022-08-30T16:47:04;9.17;;;6.23;;
1759;SDS011;877;46.266;20.062;2022-08-30T16:49:30;8.60;;;6.67;;
1759;SDS011;877;46.266;20.062;2022-08-30T16:51:59;9.53;;;6.00;;
1759;SDS011;877;46.266;20.062;2022-08-30T16:56:56;12.13;;;6.53;;
1759;SDS011;877;46.266;20.062;2022-08-30T16:59:23;9.07;;;6.60;;
1759;SDS011;877;46.266;20.062;2022-08-30T17:01:51;8.10;;;5.77;;
1759;SDS011;877;46.266;20.062;2022-08-30T17:04:21;7.53;;;5.87;;
1759;SDS011;877;46.266;20.062;2022-08-30T17:06:47;7.80;;;6.10;;
1759;SDS011;877;46.266;20.062;2022-08-30T17:11:45;9.20;;;6.00;;